Time;durP1;ratioP1;P1;durP2;ratioP2;P2;SDS_P1;SDS_P2;PMS_P1;PMS_P2;Temp;Humidity;BMP_temperature;BMP_pressure;BME280_temperature;BME280_humidity;BME280_pressure;Samples;Min_cycle;Max_cycle;Signal;HPM_P1;HPM_P2
2023/09/11 00:00:59;;;;;;;90.82;54.83;;;19.00;99.90;;;;;;5002146;28;20053;-78
2023/09/11 00:03:25;;;;;;;91.93;55.88;;;18.90;99.90;;;;;;5003365;28;20019;-77
2023/09/11 00:05:51;;;;;;;99.75;58.47;;;18.90;99.90;;;;;;5005333;28;20057;-78
2023/09/11 00:08:17;;;;;;;87.82;52.70;;;18.90;99.90;;;;;;5003839;28;20018;-77
2023/09/11 00:10:42;;;;;;;84.05;52.05;;;18.90;99.90;;;;;;5003873;28;20426;-78
2023/09/11 00:13:08;;;;;;;91.90;55.67;;;18.80;99.90;;;;;;5003090;28;20086;-77
2023/09/11 00:15:35;;;;;;;95.35;58.08;;;18.90;99.90;;;;;;5003456;28;20045;-76
2023/09/11 00:18:01;;;;;;;94.35;58.17;;;18.80;99.90;;;;;;5002148;28;20018;-76
2023/09/11 00:20:26;;;;;;;87.65;52.85;;;18.80;99.90;;;;;;5001883;28;20022;-76
2023/09/11 00:22:52;;;;;;;91.45;54.47;;;18.80;99.90;;;;;;5003714;28;20030;-76
2023/09/11 00:25:18;;;;;;;90.60;54.42;;;18.80;99.90;;;;;;5003165;28;20042;-75
2023/09/11 00:27:43;;;;;;;90.53;53.15;;;18.80;99.90;;;;;;5004674;28;20042;-76
2023/09/11 00:30:09;;;;;;;79.25;49.60;;;18.80;99.90;;;;;;5002397;28;20078;-76
2023/09/11 00:32:35;;;;;;;84.70;52.33;;;18.80;99.90;;;;;;5003876;28;20023;-75
2023/09/11 00:35:00;;;;;;;96.05;56.25;;;18.80;99.90;;;;;;5002054;28;20085;-75
2023/09/11 00:37:26;;;;;;;96.55;58.53;;;18.80;99.90;;;;;;5003916;28;20023;-76
2023/09/11 00:39:52;;;;;;;89.38;54.20;;;18.70;99.90;;;;;;5002977;28;20030;-76
2023/09/11 00:42:17;;;;;;;95.10;57.85;;;18.70;99.90;;;;;;5003703;28;20035;-77
2023/09/11 00:44:43;;;;;;;99.05;59.47;;;18.70;99.90;;;;;;5002602;28;20057;-77
2023/09/11 00:47:09;;;;;;;91.07;55.78;;;18.70;99.90;;;;;;5002756;28;20093;-78
2023/09/11 00:49:35;;;;;;;104.80;61.63;;;18.70;99.90;;;;;;5001984;28;20014;-76
2023/09/11 00:52:01;;;;;;;99.93;61.30;;;18.70;99.90;;;;;;5003672;28;20029;-76
2023/09/11 00:54:28;;;;;;;106.25;64.32;;;18.70;99.90;;;;;;5002406;28;20030;-77
2023/09/11 00:56:54;;;;;;;100.93;62.20;;;18.60;99.90;;;;;;5001036;28;20045;-76
2023/09/11 00:59:20;;;;;;;102.20;59.58;;;18.70;99.90;;;;;;5002542;28;20018;-78
2023/09/11 01:01:48;;;;;;;101.20;61.70;;;18.60;99.90;;;;;;5001753;28;20022;-76
2023/09/11 01:04:13;;;;;;;104.22;62.60;;;18.60;99.90;;;;;;5002274;28;20030;-78
2023/09/11 01:06:39;;;;;;;96.38;60.50;;;18.50;99.90;;;;;;5002358;28;20046;-77
2023/09/11 01:09:05;;;;;;;94.63;56.92;;;18.50;99.90;;;;;;5002163;28;20022;-77
2023/09/11 01:11:30;;;;;;;99.25;58.17;;;18.50;99.90;;;;;;5002034;28;20038;-78
2023/09/11 01:13:57;;;;;;;95.78;58.08;;;18.50;99.90;;;;;;5002418;28;20129;-78
2023/09/11 01:16:29;;;;;;;102.63;62.08;;;18.50;99.90;;;;;;5000482;28;20023;-77
2023/09/11 01:19:05;;;;;;;99.13;59.35;;;18.40;99.90;;;;;;5002320;28;20049;-76
2023/09/11 01:21:59;;;;;;;98.15;61.08;;;18.40;99.90;;;;;;5001179;28;20026;-77
2023/09/11 01:24:57;;;;;;;95.45;57.10;;;18.40;99.90;;;;;;5001443;28;20034;-77
2023/09/11 01:27:54;;;;;;;95.93;57.38;;;18.40;99.90;;;;;;5001439;28;20042;-77
2023/09/11 01:30:21;;;;;;;92.90;57.35;;;18.40;99.90;;;;;;5002795;28;20091;-77
2023/09/11 01:32:48;;;;;;;89.28;55.00;;;18.40;99.90;;;;;;5000982;28;20031;-76
2023/09/11 01:35:14;;;;;;;94.50;56.80;;;18.30;99.90;;;;;;5001195;28;20050;-78
2023/09/11 01:37:39;;;;;;;92.38;56.28;;;18.30;99.90;;;;;;5002555;28;20105;-75
2023/09/11 01:40:06;;;;;;;88.50;55.95;;;18.30;99.90;;;;;;5002313;28;20022;-77
2023/09/11 01:42:49;;;;;;;92.88;56.88;;;18.30;99.90;;;;;;5000722;28;20522;-76
2023/09/11 01:45:16;;;;;;;95.60;56.72;;;18.20;99.90;;;;;;5001140;28;20034;-76
2023/09/11 01:47:48;;;;;;;86.82;55.03;;;18.20;99.90;;;;;;5000600;28;20394;-78
2023/09/11 01:50:18;;;;;;;91.45;56.85;;;18.20;99.90;;;;;;5017792;28;20038;-77
2023/09/11 01:52:46;;;;;;;91.00;55.58;;;18.20;99.90;;;;;;5000871;28;20030;-77
2023/09/11 01:55:12;;;;;;;93.78;57.30;;;18.10;99.90;;;;;;5000801;28;20420;-77
2023/09/11 01:57:38;;;;;;;84.97;52.97;;;18.10;99.90;;;;;;5002251;28;20036;-77
2023/09/11 02:00:05;;;;;;;85.07;54.20;;;18.10;99.90;;;;;;5000658;28;20026;-77
2023/09/11 02:02:31;;;;;;;94.13;56.63;;;18.10;99.90;;;;;;5000611;28;20026;-79
2023/09/11 02:04:56;;;;;;;90.03;57.40;;;18.10;99.90;;;;;;5002323;28;20026;-78
2023/09/11 02:07:22;;;;;;;86.10;53.72;;;18.10;99.90;;;;;;5002544;28;20044;-78
2023/09/11 02:09:47;;;;;;;90.93;56.20;;;18.10;99.90;;;;;;5000086;28;20023;-77
2023/09/11 02:12:13;;;;;;;89.60;56.92;;;18.10;99.90;;;;;;5002499;28;20018;-76
2023/09/11 02:14:39;;;;;;;84.53;53.20;;;18.00;99.90;;;;;;5001864;28;20493;-77
2023/09/11 02:17:04;;;;;;;91.78;56.28;;;18.00;99.90;;;;;;5000810;28;20022;-80
2023/09/11 02:19:31;;;;;;;80.63;52.35;;;18.00;99.90;;;;;;5000625;28;20030;-78
2023/09/11 02:21:57;;;;;;;86.10;54.55;;;18.00;99.90;;;;;;5000043;28;20129;-77
2023/09/11 02:24:22;;;;;;;84.82;54.15;;;17.90;99.90;;;;;;5000937;28;20468;-77
2023/09/11 02:26:48;;;;;;;87.57;55.10;;;17.90;99.90;;;;;;5001006;28;20049;-78
2023/09/11 02:29:14;;;;;;;87.63;54.65;;;17.90;99.90;;;;;;4998975;28;20053;-77
2023/09/11 02:31:39;;;;;;;90.63;56.05;;;17.90;99.90;;;;;;5000772;28;20106;-78
2023/09/11 02:34:05;;;;;;;84.75;54.50;;;17.90;99.90;;;;;;5001831;28;20031;-76
2023/09/11 02:36:39;;;;;;;80.47;53.63;;;17.90;99.90;;;;;;5000520;28;20037;-77
2023/09/11 02:39:05;;;;;;;83.38;53.35;;;17.80;99.90;;;;;;5000124;28;20052;-76
2023/09/11 02:41:30;;;;;;;85.53;54.40;;;17.80;99.90;;;;;;5000630;28;20391;-76
2023/09/11 02:43:56;;;;;;;88.63;57.15;;;17.80;99.90;;;;;;5003017;28;20117;-76
2023/09/11 02:46:22;;;;;;;79.97;52.58;;;17.80;99.90;;;;;;5005946;28;20038;-77
2023/09/11 02:48:48;;;;;;;89.05;55.92;;;17.70;99.90;;;;;;5004564;28;20048;-77
2023/09/11 02:51:15;;;;;;;85.15;54.50;;;17.70;99.90;;;;;;5004013;28;20042;-77
2023/09/11 02:53:41;;;;;;;86.60;54.42;;;17.70;99.90;;;;;;5005613;28;20021;-77
2023/09/11 02:56:06;;;;;;;81.13;52.17;;;17.70;99.90;;;;;;5004196;28;20026;-80
2023/09/11 02:58:32;;;;;;;85.68;53.83;;;17.70;99.90;;;;;;5003030;28;20068;-77
2023/09/11 03:01:05;;;;;;;86.50;53.85;;;17.70;99.90;;;;;;5004081;28;20487;-77
2023/09/11 03:03:31;;;;;;;82.80;52.80;;;17.70;99.90;;;;;;5004723;28;20115;-78
2023/09/11 03:05:58;;;;;;;87.28;55.25;;;17.70;99.90;;;;;;5003948;28;20046;-76
2023/09/11 03:08:24;;;;;;;87.72;54.97;;;17.70;99.90;;;;;;5005352;28;20033;-77
2023/09/11 03:10:50;;;;;;;84.57;55.00;;;17.60;99.90;;;;;;5004137;28;20034;-79
2023/09/11 03:13:15;;;;;;;88.13;55.10;;;17.60;99.90;;;;;;5004721;28;20030;-78
2023/09/11 03:15:44;;;;;;;82.25;51.78;;;17.60;99.90;;;;;;5005617;28;20037;-78
2023/09/11 03:18:10;;;;;;;79.45;51.50;;;17.60;99.90;;;;;;5003470;28;20029;-78
2023/09/11 03:20:35;;;;;;;80.78;52.78;;;17.50;99.90;;;;;;5002882;28;20038;-76
2023/09/11 03:23:01;;;;;;;82.57;52.08;;;17.50;99.90;;;;;;5003919;28;20718;-78
2023/09/11 03:25:27;;;;;;;81.28;52.35;;;17.50;99.90;;;;;;5002800;28;20038;-78
2023/09/11 03:27:53;;;;;;;81.97;52.97;;;17.50;99.90;;;;;;5004882;28;20384;-78
2023/09/11 03:30:18;;;;;;;82.57;52.75;;;17.50;99.90;;;;;;5005338;28;20033;-78
2023/09/11 03:32:44;;;;;;;83.10;53.35;;;17.40;99.90;;;;;;5005133;28;20030;-77
2023/09/11 03:35:10;;;;;;;82.90;53.88;;;17.40;99.90;;;;;;5002166;28;20093;-77
2023/09/11 03:37:36;;;;;;;83.82;52.22;;;17.40;99.90;;;;;;5004807;28;20022;-77
2023/09/11 03:40:07;;;;;;;75.68;49.35;;;17.40;99.90;;;;;;5004152;28;20109;-76
2023/09/11 03:42:33;;;;;;;82.55;51.78;;;17.40;99.90;;;;;;5004755;28;20022;-77
2023/09/11 03:45:00;;;;;;;82.13;50.95;;;17.30;99.90;;;;;;5004662;28;20472;-77
2023/09/11 03:47:25;;;;;;;82.38;52.25;;;17.30;99.90;;;;;;5004490;28;20041;-75
2023/09/11 03:49:51;;;;;;;84.78;53.22;;;17.30;99.90;;;;;;5003149;28;20082;-79
2023/09/11 03:52:17;;;;;;;81.78;52.42;;;17.30;99.90;;;;;;5003343;28;20030;-79
2023/09/11 03:54:49;;;;;;;79.15;50.75;;;17.30;99.90;;;;;;5003138;28;20030;-79
2023/09/11 03:57:14;;;;;;;78.55;49.53;;;17.20;99.90;;;;;;5004376;28;20029;-77
2023/09/11 03:59:40;;;;;;;80.28;51.42;;;17.20;99.90;;;;;;5003375;28;20390;-78
2023/09/11 04:02:05;;;;;;;78.47;49.03;;;17.20;99.90;;;;;;5003086;28;20033;-78
2023/09/11 04:04:35;;;;;;;79.72;51.75;;;17.20;99.90;;;;;;5004459;28;20025;-77
2023/09/11 04:07:00;;;;;;;79.72;49.55;;;17.20;99.90;;;;;;5002016;28;20106;-76
2023/09/11 04:09:26;;;;;;;76.97;49.15;;;17.10;99.90;;;;;;5004055;28;20057;-76
2023/09/11 04:11:51;;;;;;;81.55;50.03;;;17.10;99.90;;;;;;5003154;28;20046;-79
2023/09/11 04:14:17;;;;;;;80.80;51.80;;;17.10;99.90;;;;;;5003178;28;20058;-79
2023/09/11 04:16:43;;;;;;;76.68;49.33;;;17.10;99.90;;;;;;5002363;28;20433;-78
2023/09/11 04:19:08;;;;;;;75.28;48.97;;;17.00;99.90;;;;;;5003331;28;20131;-78
2023/09/11 04:21:34;;;;;;;78.72;49.10;;;17.00;99.90;;;;;;5002789;28;20457;-77
2023/09/11 04:24:00;;;;;;;78.20;50.00;;;17.00;99.90;;;;;;5005035;28;20038;-78
2023/09/11 04:26:25;;;;;;;77.63;49.35;;;17.00;99.90;;;;;;5004306;28;20030;-78
2023/09/11 04:28:51;;;;;;;77.72;50.10;;;17.00;99.90;;;;;;5003916;28;20022;-80
2023/09/11 04:31:16;;;;;;;76.25;50.63;;;17.00;99.90;;;;;;5003811;28;20029;-79
2023/09/11 04:33:42;;;;;;;73.97;48.17;;;16.90;99.90;;;;;;5004163;28;20095;-78
2023/09/11 04:36:07;;;;;;;71.50;48.05;;;16.90;99.90;;;;;;5002004;28;20089;-78
2023/09/11 04:38:33;;;;;;;75.88;49.60;;;16.90;99.90;;;;;;5001706;28;20030;-77
2023/09/11 04:41:02;;;;;;;74.60;47.95;;;16.90;99.90;;;;;;5002338;28;20019;-76
2023/09/11 04:43:28;;;;;;;78.15;50.70;;;16.90;99.90;;;;;;5002525;28;20041;-75
2023/09/11 04:45:53;;;;;;;74.95;48.78;;;16.90;99.90;;;;;;5002291;28;20038;-73
2023/09/11 04:48:19;;;;;;;79.70;52.38;;;16.90;99.90;;;;;;4998533;28;20053;-74
2023/09/11 04:50:44;;;;;;;78.75;49.88;;;16.90;99.90;;;;;;5001794;28;20038;-76
2023/09/11 04:53:10;;;;;;;73.95;47.35;;;16.90;99.90;;;;;;5002512;28;20022;-75
2023/09/11 04:55:36;;;;;;;77.38;47.70;;;16.80;99.90;;;;;;5002003;28;20022;-76
2023/09/11 04:58:02;;;;;;;69.88;46.92;;;16.90;99.90;;;;;;5001445;28;20094;-75
2023/09/11 05:00:29;;;;;;;70.57;46.78;;;16.90;99.90;;;;;;5001931;28;20053;-73
2023/09/11 05:02:55;;;;;;;71.55;48.47;;;16.80;99.90;;;;;;5002307;28;20022;-74
2023/09/11 05:05:20;;;;;;;71.75;47.30;;;16.90;99.90;;;;;;5001739;28;20053;-75
2023/09/11 05:07:46;;;;;;;72.72;47.25;;;16.90;99.90;;;;;;5002451;28;20105;-75
2023/09/11 05:10:14;;;;;;;76.68;47.53;;;16.90;99.90;;;;;;5002343;28;20030;-73
2023/09/11 05:12:40;;;;;;;75.90;47.60;;;16.90;99.90;;;;;;5001267;28;20030;-75
2023/09/11 05:15:06;;;;;;;71.47;46.95;;;16.90;99.90;;;;;;5002363;28;20452;-75
2023/09/11 05:17:32;;;;;;;72.35;48.42;;;16.90;99.90;;;;;;5001155;28;20034;-73
2023/09/11 05:19:58;;;;;;;69.13;46.03;;;16.90;99.90;;;;;;5002886;28;20048;-73
2023/09/11 05:22:23;;;;;;;72.25;47.25;;;16.90;99.90;;;;;;5001619;28;20037;-75
2023/09/11 05:24:49;;;;;;;73.57;46.65;;;16.90;99.90;;;;;;5001169;28;20085;-74
2023/09/11 05:27:16;;;;;;;70.75;46.67;;;16.90;99.90;;;;;;5001582;28;20050;-75
2023/09/11 05:29:42;;;;;;;65.80;43.45;;;16.90;99.90;;;;;;5000853;28;20034;-76
2023/09/11 05:32:07;;;;;;;72.22;46.88;;;16.90;99.90;;;;;;5000033;28;20034;-74
2023/09/11 05:34:33;;;;;;;68.93;45.25;;;17.00;99.90;;;;;;5000355;28;20284;-75
2023/09/11 05:36:59;;;;;;;69.45;46.28;;;17.00;99.90;;;;;;4998806;28;20027;-75
2023/09/11 05:39:24;;;;;;;71.07;45.38;;;17.00;99.90;;;;;;5001829;28;20391;-75
2023/09/11 05:41:50;;;;;;;70.93;45.97;;;17.00;99.90;;;;;;5000726;28;20039;-75
2023/09/11 05:44:16;;;;;;;65.55;44.08;;;17.00;99.90;;;;;;5000417;28;20054;-74
2023/09/11 05:46:42;;;;;;;69.97;44.60;;;17.10;99.90;;;;;;5000414;28;20675;-76
2023/09/11 05:49:07;;;;;;;67.85;43.35;;;17.10;99.90;;;;;;5001671;28;20087;-73
2023/09/11 05:51:33;;;;;;;64.15;43.38;;;17.10;99.90;;;;;;5000563;28;20033;-74
2023/09/11 05:53:59;;;;;;;63.65;42.75;;;17.10;99.90;;;;;;5000168;28;20015;-74
2023/09/11 05:56:24;;;;;;;64.15;43.40;;;17.20;99.90;;;;;;4999950;28;20038;-75
2023/09/11 05:58:50;;;;;;;62.38;42.17;;;17.20;99.90;;;;;;5000765;28;20041;-75
2023/09/11 06:01:16;;;;;;;59.45;40.05;;;17.20;99.90;;;;;;4999990;28;20036;-75
2023/09/11 06:03:41;;;;;;;65.10;42.58;;;17.20;99.90;;;;;;5001059;28;20073;-74
2023/09/11 06:06:07;;;;;;;61.10;40.80;;;17.20;99.90;;;;;;5001935;28;20047;-75
2023/09/11 06:08:32;;;;;;;60.40;41.17;;;17.30;99.90;;;;;;5001900;28;20030;-75
2023/09/11 06:10:59;;;;;;;60.15;37.85;;;17.30;99.90;;;;;;5001751;28;20027;-73
2023/09/11 06:13:26;;;;;;;62.10;41.15;;;17.40;99.90;;;;;;5001378;28;20042;-76
2023/09/11 06:15:52;;;;;;;64.13;41.05;;;17.40;99.90;;;;;;5000084;28;20035;-74
2023/09/11 06:18:18;;;;;;;59.60;40.55;;;17.40;99.90;;;;;;5000319;28;20110;-73
2023/09/11 06:20:44;;;;;;;59.08;39.03;;;17.40;99.90;;;;;;5002190;28;20038;-73
2023/09/11 06:23:12;;;;;;;60.78;41.03;;;17.40;99.90;;;;;;5000098;28;20018;-74
2023/09/11 06:25:38;;;;;;;55.20;38.10;;;17.50;99.90;;;;;;4999349;28;20042;-76
2023/09/11 06:28:04;;;;;;;58.97;39.72;;;17.50;99.90;;;;;;5000900;28;20038;-74
2023/09/11 06:30:31;;;;;;;61.75;40.28;;;17.50;99.90;;;;;;5000751;28;20022;-74
2023/09/11 06:32:57;;;;;;;63.17;39.80;;;17.50;99.90;;;;;;4999396;28;20050;-74
2023/09/11 06:35:22;;;;;;;56.40;36.55;;;17.60;99.90;;;;;;4999806;28;20069;-75
2023/09/11 06:37:48;;;;;;;57.03;37.30;;;17.60;99.90;;;;;;5001748;28;20041;-76
2023/09/11 06:40:15;;;;;;;61.80;37.63;;;17.60;99.90;;;;;;4997505;28;20030;-76
2023/09/11 06:42:40;;;;;;;53.72;37.35;;;17.60;99.90;;;;;;4997184;28;20097;-73
2023/09/11 06:45:06;;;;;;;54.88;36.70;;;17.70;99.90;;;;;;4998602;28;20062;-75
2023/09/11 06:47:36;;;;;;;56.50;36.35;;;17.70;99.90;;;;;;5000229;28;20094;-76
2023/09/11 06:50:04;;;;;;;57.72;36.28;;;17.80;99.90;;;;;;5000324;28;20124;-73
2023/09/11 06:52:30;;;;;;;52.85;36.45;;;17.80;99.90;;;;;;5001705;28;20475;-75
2023/09/11 06:54:55;;;;;;;49.88;35.05;;;17.80;99.90;;;;;;5000783;28;20022;-74
2023/09/11 06:57:22;;;;;;;53.22;35.00;;;17.80;99.90;;;;;;5000649;28;20022;-75
2023/09/11 06:59:53;;;;;;;56.53;35.08;;;17.90;99.90;;;;;;4998651;28;20027;-75
2023/09/11 07:02:19;;;;;;;58.75;35.58;;;17.90;99.90;;;;;;4999300;28;20030;-76
2023/09/11 07:04:45;;;;;;;50.90;34.80;;;18.00;99.90;;;;;;5001390;28;20476;-74
2023/09/11 07:07:10;;;;;;;50.97;35.05;;;18.00;99.90;;;;;;5000662;28;20043;-74
2023/09/11 07:09:36;;;;;;;60.20;34.85;;;18.10;99.90;;;;;;5000164;28;20074;-76
2023/09/11 07:12:02;;;;;;;50.42;34.47;;;18.10;99.90;;;;;;5001577;28;20018;-76
2023/09/11 07:14:28;;;;;;;53.17;35.60;;;18.20;99.90;;;;;;4999309;28;20069;-73
2023/09/11 07:16:55;;;;;;;51.13;34.40;;;18.30;99.90;;;;;;5000959;28;20031;-73
2023/09/11 07:19:22;;;;;;;50.45;34.60;;;18.30;99.90;;;;;;4999354;28;20109;-77
2023/09/11 07:21:48;;;;;;;51.45;34.40;;;18.30;99.90;;;;;;4999663;28;20040;-74
2023/09/11 07:24:13;;;;;;;51.75;36.28;;;18.40;99.90;;;;;;5001796;28;20499;-75
2023/09/11 07:26:39;;;;;;;50.83;36.25;;;18.50;99.90;;;;;;5000746;28;20498;-74
2023/09/11 07:29:05;;;;;;;48.35;34.05;;;18.60;99.90;;;;;;5000351;28;20034;-75
2023/09/11 07:31:32;;;;;;;49.63;34.22;;;18.70;99.90;;;;;;5004660;28;20061;-74
2023/09/11 07:33:58;;;;;;;50.83;35.30;;;18.80;99.90;;;;;;5001010;28;20028;-74
2023/09/11 07:36:25;;;;;;;48.95;32.85;;;18.90;99.90;;;;;;5004538;28;20078;-74
2023/09/11 07:38:51;;;;;;;45.58;31.77;;;18.90;99.90;;;;;;5003261;28;20530;-75
2023/09/11 07:41:18;;;;;;;44.75;32.55;;;19.00;99.90;;;;;;5004028;28;20026;-74
2023/09/11 07:43:48;;;;;;;46.80;31.25;;;19.10;99.90;;;;;;5004398;28;20073;-74
2023/09/11 07:46:14;;;;;;;47.03;31.25;;;19.20;99.90;;;;;;5003711;28;20034;-75
2023/09/11 07:48:40;;;;;;;52.80;34.10;;;19.30;99.90;;;;;;5002083;28;20049;-74
2023/09/11 07:51:06;;;;;;;45.60;31.42;;;19.40;99.90;;;;;;5003670;28;20019;-74
2023/09/11 07:53:32;;;;;;;44.30;30.67;;;19.50;99.90;;;;;;5002680;28;20033;-74
2023/09/11 07:55:57;;;;;;;45.05;31.92;;;19.60;99.90;;;;;;5003658;28;20038;-76
2023/09/11 07:58:24;;;;;;;41.35;29.23;;;19.70;99.90;;;;;;5003277;28;20098;-78
2023/09/11 08:00:57;;;;;;;39.80;29.50;;;19.80;99.90;;;;;;5003258;28;20030;-74
2023/09/11 08:03:22;;;;;;;40.78;30.48;;;19.90;99.90;;;;;;5000348;28;20122;-73
2023/09/11 08:05:48;;;;;;;40.20;29.92;;;20.00;99.90;;;;;;5001939;28;20096;-73
2023/09/11 08:08:13;;;;;;;41.90;29.83;;;20.10;99.90;;;;;;5003321;28;20022;-73
2023/09/11 08:10:39;;;;;;;47.83;32.08;;;20.10;99.90;;;;;;5001819;28;20177;-73
2023/09/11 08:13:08;;;;;;;42.13;28.58;;;20.30;99.90;;;;;;5003243;28;20609;-74
2023/09/11 08:15:34;;;;;;;42.38;28.30;;;20.40;99.90;;;;;;5003118;28;20030;-73
2023/09/11 08:17:59;;;;;;;42.30;29.05;;;20.50;99.90;;;;;;5002625;28;20094;-72
2023/09/11 08:20:25;;;;;;;38.28;28.73;;;20.60;99.90;;;;;;5003026;28;20034;-74
2023/09/11 08:22:51;;;;;;;40.40;28.42;;;20.70;99.90;;;;;;5002841;28;20033;-72
2023/09/11 08:25:17;;;;;;;36.08;26.83;;;20.90;99.90;;;;;;5003611;28;20030;-73
2023/09/11 08:27:43;;;;;;;39.42;27.08;;;21.00;99.90;;;;;;5002558;28;20034;-72
2023/09/11 08:30:09;;;;;;;38.60;25.88;;;21.10;99.90;;;;;;5002759;28;20030;-73
2023/09/11 08:32:34;;;;;;;39.17;28.13;;;21.20;99.90;;;;;;5003808;28;20034;-75
2023/09/11 08:35:00;;;;;;;35.42;25.17;;;21.20;99.90;;;;;;5002989;28;20065;-73
2023/09/11 08:37:26;;;;;;;38.28;26.48;;;21.30;99.90;;;;;;5004232;28;20049;-72
2023/09/11 08:39:54;;;;;;;38.78;26.35;;;21.40;99.90;;;;;;5003049;28;20035;-74
2023/09/11 08:42:22;;;;;;;38.03;26.15;;;21.50;99.90;;;;;;5002042;28;20033;-72
2023/09/11 08:44:51;;;;;;;35.72;26.52;;;21.60;99.90;;;;;;5001888;28;20058;-73
2023/09/11 08:47:19;;;;;;;35.17;24.88;;;21.70;99.90;;;;;;5003336;28;20034;-72
2023/09/11 08:49:53;;;;;;;36.97;24.65;;;21.80;99.90;;;;;;5003791;28;20542;-72
2023/09/11 08:52:19;;;;;;;37.00;23.45;;;21.90;99.90;;;;;;5002013;28;20676;-75
2023/09/11 08:54:55;;;;;;;41.25;22.75;;;22.00;99.90;;;;;;4999201;28;20061;-73
2023/09/11 08:57:26;;;;;;;35.90;25.10;;;22.10;99.90;;;;;;5001750;28;20030;-73
2023/09/11 08:59:59;;;;;;;32.25;22.27;;;22.20;99.90;;;;;;4998527;28;20072;-74
2023/09/11 09:02:26;;;;;;;35.75;23.80;;;22.30;99.90;;;;;;4996041;28;20026;-75
2023/09/11 09:04:54;;;;;;;33.80;21.48;;;22.40;99.90;;;;;;5001418;28;20105;-74
2023/09/11 09:07:21;;;;;;;35.67;23.17;;;22.50;99.90;;;;;;5002451;28;20045;-73
2023/09/11 09:09:47;;;;;;;30.70;21.45;;;22.60;99.90;;;;;;5016346;28;20053;-72
2023/09/11 09:12:13;;;;;;;40.03;23.20;;;22.70;99.90;;;;;;5002821;28;20500;-73
2023/09/11 09:14:39;;;;;;;33.65;20.60;;;22.90;99.90;;;;;;5003285;28;20034;-76
2023/09/11 09:17:05;;;;;;;31.42;20.20;;;23.00;99.90;;;;;;5002669;28;20054;-73
2023/09/11 09:19:31;;;;;;;28.60;20.52;;;23.10;99.90;;;;;;5001877;28;20026;-74
2023/09/11 09:22:04;;;;;;;31.90;20.00;;;23.10;99.90;;;;;;5002104;28;20019;-72
2023/09/11 09:24:30;;;;;;;30.17;19.83;;;23.20;99.90;;;;;;5009755;28;20022;-75
2023/09/11 09:27:07;;;;;;;27.17;19.08;;;23.30;99.90;;;;;;5002872;28;20476;-75
2023/09/11 09:29:35;;;;;;;25.45;18.15;;;23.50;99.90;;;;;;5002174;28;20030;-72
2023/09/11 09:32:07;;;;;;;30.55;17.58;;;23.70;99.90;;;;;;5002275;28;20026;-72
2023/09/11 09:34:34;;;;;;;28.33;17.98;;;23.80;99.90;;;;;;5000977;28;20050;-73
2023/09/11 09:37:00;;;;;;;26.58;16.95;;;23.90;99.90;;;;;;5002626;28;20061;-74
2023/09/11 09:39:29;;;;;;;24.85;15.93;;;23.90;99.90;;;;;;5002702;28;20026;-74
2023/09/11 09:42:00;;;;;;;27.23;16.42;;;24.10;99.90;;;;;;5002328;28;20021;-72
2023/09/11 09:44:34;;;;;;;26.98;16.35;;;24.20;99.90;;;;;;5002257;28;20054;-72
2023/09/11 09:47:11;;;;;;;23.25;15.55;;;24.30;99.90;;;;;;5000435;28;20034;-75
2023/09/11 09:49:47;;;;;;;27.05;14.77;;;24.30;99.90;;;;;;5002630;28;20030;-74
2023/09/11 09:52:13;;;;;;;26.67;15.02;;;24.30;99.90;;;;;;5002099;28;20081;-75
2023/09/11 09:54:43;;;;;;;27.23;14.88;;;24.50;99.90;;;;;;5002578;28;20031;-74
2023/09/11 09:57:11;;;;;;;26.48;14.70;;;24.50;99.90;;;;;;5001330;28;20973;-73
2023/09/11 09:59:37;;;;;;;30.65;14.35;;;24.50;99.90;;;;;;5001241;28;20018;-72
2023/09/11 10:02:02;;;;;;;26.90;15.45;;;24.60;99.90;;;;;;5001866;28;20364;-76
2023/09/11 10:04:28;;;;;;;34.90;13.57;;;24.70;99.90;;;;;;4999500;28;20033;-74
2023/09/11 10:06:54;;;;;;;28.88;14.77;;;24.70;99.90;;;;;;4999072;28;20286;-74
2023/09/11 10:09:21;;;;;;;26.92;13.55;;;24.80;99.90;;;;;;4999776;28;20122;-72
2023/09/11 10:11:46;;;;;;;26.85;13.90;;;25.00;99.90;;;;;;5000961;28;20061;-75
2023/09/11 10:14:13;;;;;;;22.50;13.60;;;25.10;99.90;;;;;;5000607;28;20038;-75
2023/09/11 10:16:40;;;;;;;23.70;14.43;;;25.20;99.90;;;;;;5001528;28;20035;-73
2023/09/11 10:19:05;;;;;;;31.70;13.75;;;25.20;99.90;;;;;;4998751;28;20054;-73
2023/09/11 10:21:32;;;;;;;26.92;13.82;;;25.30;99.90;;;;;;5000438;28;20031;-73
2023/09/11 10:23:58;;;;;;;26.75;12.48;;;25.40;99.90;;;;;;4998299;28;20197;-74
2023/09/11 10:26:29;;;;;;;34.80;13.60;;;25.40;99.90;;;;;;5001137;28;20479;-74
2023/09/11 10:29:05;;;;;;;29.25;13.18;;;25.50;99.90;;;;;;4999577;28;20094;-74
2023/09/11 10:31:53;;;;;;;31.83;14.07;;;25.50;99.90;;;;;;4998316;28;20049;-75
2023/09/11 10:34:20;;;;;;;24.40;12.73;;;25.60;99.90;;;;;;5000190;28;20062;-75
2023/09/11 10:36:53;;;;;;;26.60;12.35;;;25.60;99.90;;;;;;5000092;28;20034;-73
2023/09/11 10:39:19;;;;;;;34.20;13.23;;;25.70;99.90;;;;;;5000132;28;20160;-75
2023/09/11 10:41:45;;;;;;;31.75;12.10;;;25.90;99.90;;;;;;4999533;28;20118;-73
2023/09/11 10:44:11;;;;;;;26.38;12.80;;;25.90;99.90;;;;;;4999336;28;20057;-75
2023/09/11 10:46:39;;;;;;;31.83;12.45;;;26.10;99.90;;;;;;4997398;28;20125;-74
2023/09/11 10:49:17;;;;;;;23.80;13.05;;;26.10;99.90;;;;;;4998722;28;20482;-75
2023/09/11 10:51:46;;;;;;;26.25;13.57;;;26.20;99.90;;;;;;4996884;28;20364;-73
2023/09/11 10:54:13;;;;;;;35.80;13.50;;;26.30;99.90;;;;;;5000881;28;20539;-73
2023/09/11 10:56:38;;;;;;;33.10;13.23;;;26.40;99.90;;;;;;4999244;28;20045;-74
2023/09/11 10:59:04;;;;;;;30.48;13.77;;;26.50;99.90;;;;;;5000359;28;20026;-74
2023/09/11 11:01:33;;;;;;;32.80;13.57;;;26.70;99.90;;;;;;4999704;28;20027;-73
2023/09/11 11:04:04;;;;;;;31.70;13.02;;;26.90;99.90;;;;;;5001224;28;20018;-75
2023/09/11 11:06:31;;;;;;;34.22;12.85;;;27.00;99.90;;;;;;5003948;28;20034;-74
2023/09/11 11:08:57;;;;;;;29.35;12.20;;;27.10;99.90;;;;;;4998560;28;20022;-76
2023/09/11 11:11:29;;;;;;;25.50;11.68;;;27.20;99.90;;;;;;5002309;28;20030;-74
2023/09/11 11:14:15;;;;;;;26.35;11.25;;;27.20;99.90;;;;;;5008949;28;20406;-75
2023/09/11 11:16:56;;;;;;;23.58;11.00;;;27.20;99.90;;;;;;5000792;28;20137;-74
2023/09/11 11:19:33;;;;;;;28.05;11.95;;;27.30;99.90;;;;;;5006333;28;20054;-74
2023/09/11 11:22:03;;;;;;;31.63;11.18;;;27.40;99.90;;;;;;5001830;28;20534;-74
2023/09/11 11:24:37;;;;;;;33.45;11.05;;;27.50;99.90;;;;;;4997257;28;20037;-72
2023/09/11 11:27:03;;;;;;;34.15;12.25;;;27.60;99.90;;;;;;5002061;28;20046;-75
2023/09/11 11:29:29;;;;;;;39.35;11.82;;;27.70;99.90;;;;;;4997919;28;20034;-74
2023/09/11 11:31:58;;;;;;;29.92;11.00;;;27.80;99.90;;;;;;5000874;28;20032;-73
2023/09/11 11:34:31;;;;;;;29.38;11.40;;;27.90;99.90;;;;;;4999158;28;20539;-73
2023/09/11 11:36:58;;;;;;;25.60;11.13;;;28.00;99.90;;;;;;5000015;28;20066;-74
2023/09/11 11:39:27;;;;;;;22.98;10.48;;;28.10;99.90;;;;;;5003957;28;20033;-75
2023/09/11 11:41:54;;;;;;;31.75;10.98;;;28.20;99.90;;;;;;5001240;28;20029;-74
2023/09/11 11:44:21;;;;;;;25.10;10.13;;;28.40;99.90;;;;;;5002125;28;20026;-75
2023/09/11 11:46:47;;;;;;;26.27;11.60;;;28.50;99.90;;;;;;4999687;28;20034;-73
2023/09/11 11:49:18;;;;;;;22.83;10.23;;;28.60;99.90;;;;;;5000346;28;20038;-73
2023/09/11 11:51:44;;;;;;;23.40;11.48;;;28.70;99.90;;;;;;4999877;28;20529;-75
2023/09/11 11:54:23;;;;;;;32.40;9.93;;;28.80;99.90;;;;;;4999517;28;20030;-74
2023/09/11 11:56:59;;;;;;;24.55;10.77;;;29.00;99.90;;;;;;5001820;28;20166;-75
2023/09/11 11:59:47;;;;;;;21.90;10.60;;;29.00;99.90;;;;;;5002969;28;20035;-75
2023/09/11 12:02:24;;;;;;;22.80;9.93;;;29.10;99.90;;;;;;5002903;28;20026;-74
2023/09/11 12:04:54;;;;;;;26.27;10.00;;;29.20;99.90;;;;;;5004034;28;20030;-75
2023/09/11 12:07:22;;;;;;;26.02;10.18;;;29.30;99.90;;;;;;5004364;28;20041;-75
2023/09/11 12:09:48;;;;;;;19.80;9.35;;;29.50;99.90;;;;;;5003178;28;20077;-74
2023/09/11 12:12:14;;;;;;;23.50;9.80;;;29.60;99.90;;;;;;5002958;28;20407;-72
2023/09/11 12:14:39;;;;;;;29.52;9.40;;;29.70;99.90;;;;;;5004348;28;20027;-74
2023/09/11 12:17:09;;;;;;;28.63;9.73;;;29.80;99.90;;;;;;5001978;28;20018;-74
2023/09/11 12:19:35;;;;;;;27.45;9.77;;;29.90;99.90;;;;;;5003573;28;20026;-75
2023/09/11 12:22:00;;;;;;;24.85;9.70;;;30.00;99.90;;;;;;5000952;28;20110;-75
2023/09/11 12:24:26;;;;;;;22.65;8.80;;;30.10;99.90;;;;;;5000443;28;20054;-75
2023/09/11 12:26:52;;;;;;;27.30;8.88;;;30.20;99.90;;;;;;5000615;28;20046;-75
2023/09/11 12:29:19;;;;;;;19.95;8.30;;;30.20;99.90;;;;;;4998936;28;20034;-73